Time;durP1;ratioP1;P1;durP2;ratioP2;P2;SDS_P1;SDS_P2;PMS_P1;PMS_P2;Temp;Humidity;BMP_temperature;BMP_pressure;BME280_temperature;BME280_humidity;BME280_pressure;Samples;Min_cycle;Max_cycle;Signal;HPM_P1;HPM_P2
2021/12/20 00:02:23;;;;;;;;;;;;;;;;;;5035596;28;20364;-84
2021/12/20 00:04:51;;;;;;;;;;;;;;;;;;5032467;28;19917;-85
2021/12/20 00:07:16;;;;;;;;;;;;;;;;;;5032452;28;19924;-84
2021/12/20 00:09:42;;;;;;;;;;;;;;;;;;5019586;28;20220;-85
2021/12/20 00:12:07;;;;;;;;;;;;;;;;;;5028660;28;20411;-84
2021/12/20 00:14:35;;;;;;;;;;;;;;;;;;5035661;28;20425;-84
2021/12/20 00:17:05;;;;;;;;;;;;;;;;;;5033825;28;19932;-84
2021/12/20 00:19:48;;;;;;;;;;;;;;;;;;5032991;28;19924;-84
2021/12/20 00:22:15;;;;;;;;;;;;;;;;;;5034860;28;19960;-85
2021/12/20 00:24:41;;;;;;;;;;;;;;;;;;5017411;28;20294;-84
2021/12/20 00:27:12;;;;;;;;;;;;;;;;;;5034170;28;19924;-84
2021/12/20 00:29:37;;;;;;;;;;;;;;;;;;5034769;28;19913;-84
2021/12/20 00:32:03;;;;;;;;;;;;;;;;;;5035699;28;19917;-84
2021/12/20 00:34:28;;;;;;;;;;;;;;;;;;5036433;28;19956;-85
2021/12/20 00:37:02;;;;;;;;;;;;;;;;;;5035430;28;19925;-84
2021/12/20 00:42:13;;;;;;;;;;;;;;;;;;5033112;28;19975;-83
2021/12/20 00:44:39;;;;;;;;;;;;;;;;;;5034779;28;19925;-85
2021/12/20 00:47:04;;;;;;;;;;;;;;;;;;5033809;28;20532;-85
2021/12/20 00:49:29;;;;;;;;;;;;;;;;;;5033900;28;20506;-84
2021/12/20 00:51:57;;;;;;;;;;;;;;;;;;5034086;28;19917;-84
2021/12/20 00:54:25;;;;;;;;;;;;;;;;;;5034963;28;19929;-85
2021/12/20 00:56:50;;;;;;;;;;;;;;;;;;5034930;28;19917;-84
2021/12/20 00:59:31;;;;;;;;;;;;;;;;;;5033725;28;20350;-84
2021/12/20 01:01:56;;;;;;;;;;;;;;;;;;5035507;28;19967;-84
2021/12/20 01:04:24;;;;;;;;;;;;;;;;;;5035135;28;19917;-85
2021/12/20 01:06:49;;;;;;;;;;;;;;;;;;5034861;28;19988;-84
2021/12/20 01:09:14;;;;;;;;;;;;;;;;;;5031627;28;19964;-85
2021/12/20 01:11:43;;;;;;;;;;;;;;;;;;5033363;28;19972;-84
2021/12/20 01:14:08;;;;;;;;;;;;;;;;;;5033339;28;19971;-84
2021/12/20 01:16:34;;;;;;;;;;;;;;;;;;5034560;28;19913;-84
2021/12/20 01:18:59;;;;;;;;;;;;;;;;;;5034658;28;19921;-84
2021/12/20 01:21:25;;;;;;;;;;;;;;;;;;5034644;28;20349;-84
2021/12/20 01:23:51;;;;;;;;;;;;;;;;;;5034579;28;19936;-84
2021/12/20 01:26:16;;;;;;;;;;;;;;;;;;5034289;28;20317;-84
2021/12/20 01:28:43;;;;;;;;;;;;;;;;;;5034277;28;19917;-85
2021/12/20 01:31:08;;;;;;;;;;;;;;;;;;5034254;28;20338;-84
2021/12/20 01:33:34;;;;;;;;;;;;;;;;;;5034161;28;19928;-86
2021/12/20 01:35:59;;;;;;;;;;;;;;;;;;5034240;28;19975;-84
2021/12/20 01:38:24;;;;;;;;;;;;;;;;;;5033316;28;19971;-84
2021/12/20 01:40:49;;;;;;;;;;;;;;;;;;5033769;28;19960;-83
2021/12/20 01:43:16;;;;;;;;;;;;;;;;;;5032298;28;19917;-83
2021/12/20 01:45:41;;;;;;;;;;;;;;;;;;5033593;28;20342;-84
2021/12/20 01:48:10;;;;;;;;;;;;;;;;;;5034416;28;19917;-83
2021/12/20 01:50:51;;;;;;;;;;;;;;;;;;5024687;28;19917;-83
2021/12/20 01:53:20;;;;;;;;;;;;;;;;;;5033410;28;20128;-83
2021/12/20 01:55:45;;;;;;;;;;;;;;;;;;5034029;28;19978;-83
2021/12/20 01:58:11;;;;;;;;;;;;;;;;;;5033402;28;20297;-82
2021/12/20 02:00:37;;;;;;;;;;;;;;;;;;5033538;28;19928;-83
2021/12/20 02:03:03;;;;;;;;;;;;;;;;;;5033861;28;19913;-82
2021/12/20 02:05:49;;;;;;;;;;;;;;;;;;5033647;28;20443;-82
2021/12/20 02:08:21;;;;;;;;;;;;;;;;;;5033550;28;19921;-82
2021/12/20 02:10:47;;;;;;;;;;;;;;;;;;5033494;28;19921;-83
2021/12/20 02:13:13;;;;;;;;;;;;;;;;;;5033726;28;19917;-82
2021/12/20 02:15:38;;;;;;;;;;;;;;;;;;5032072;28;19921;-83
2021/12/20 02:18:03;;;;;;;;;;;;;;;;;;5033670;28;19917;-82
2021/12/20 02:20:30;;;;;;;;;;;;;;;;;;5033224;28;20016;-82
2021/12/20 02:22:56;;;;;;;;;;;;;;;;;;5031872;28;20036;-82
2021/12/20 02:25:21;;;;;;;;;;;;;;;;;;5033448;28;19945;-82
2021/12/20 02:27:46;;;;;;;;;;;;;;;;;;5033194;28;19917;-82
2021/12/20 02:30:35;;;;;;;;;;;;;;;;;;5032482;28;19913;-82
2021/12/20 02:38:26;;;;;;;;;;;;;;;;;;5033297;28;19932;-82
2021/12/20 02:41:07;;;;;;;;;;;;;;;;;;5033293;28;19917;-82
2021/12/20 02:43:38;;;;;;;;;;;;;;;;;;5033205;28;19924;-82
2021/12/20 02:46:07;;;;;;;;;;;;;;;;;;5033999;28;19917;-82
2021/12/20 02:48:32;;;;;;;;;;;;;;;;;;5017348;28;20313;-82
2021/12/20 02:50:57;;;;;;;;;;;;;;;;;;5018197;28;19913;-83
2021/12/20 02:53:22;;;;;;;;;;;;;;;;;;5033446;28;19917;-82
2021/12/20 02:55:48;;;;;;;;;;;;;;;;;;5034388;28;20449;-82
2021/12/20 02:58:16;;;;;;;;;;;;;;;;;;5034644;28;19940;-82
2021/12/20 03:00:43;;;;;;;;;;;;;;;;;;5031261;28;19932;-82
2021/12/20 03:03:09;;;;;;;;;;;;;;;;;;5031397;28;19936;-83
2021/12/20 03:05:35;;;;;;;;;;;;;;;;;;5032056;28;20381;-83
2021/12/20 03:08:00;;;;;;;;;;;;;;;;;;5031829;28;20361;-83
2021/12/20 03:10:30;;;;;;;;;;;;;;;;;;5033263;28;20312;-82
2021/12/20 03:12:56;;;;;;;;;;;;;;;;;;5033148;28;19913;-84
2021/12/20 03:15:24;;;;;;;;;;;;;;;;;;5033258;28;19960;-83
2021/12/20 03:17:52;;;;;;;;;;;;;;;;;;5033057;28;20357;-83
2021/12/20 03:20:18;;;;;;;;;;;;;;;;;;5032409;28;20377;-83
2021/12/20 03:22:43;;;;;;;;;;;;;;;;;;5033030;28;19956;-83
2021/12/20 03:25:09;;;;;;;;;;;;;;;;;;5033121;28;19928;-83
2021/12/20 03:27:34;;;;;;;;;;;;;;;;;;5033143;28;19924;-83
2021/12/20 03:29:59;;;;;;;;;;;;;;;;;;5032897;28;19917;-83
2021/12/20 03:32:27;;;;;;;;;;;;;;;;;;5032801;28;19921;-83
2021/12/20 03:34:55;;;;;;;;;;;;;;;;;;5031832;28;19948;-83
2021/12/20 03:37:20;;;;;;;;;;;;;;;;;;5032137;28;20009;-83
2021/12/20 03:39:47;;;;;;;;;;;;;;;;;;5034127;28;20013;-83
2021/12/20 03:42:13;;;;;;;;;;;;;;;;;;5036627;28;19928;-83
2021/12/20 03:44:43;;;;;;;;;;;;;;;;;;5036234;28;19913;-84
2021/12/20 03:47:09;;;;;;;;;;;;;;;;;;5035667;28;19913;-85
2021/12/20 03:49:34;;;;;;;;;;;;;;;;;;5018872;28;19927;-85
2021/12/20 03:52:00;;;;;;;;;;;;;;;;;;5036459;28;20510;-85
2021/12/20 03:54:25;;;;;;;;;;;;;;;;;;5035733;28;20266;-85
2021/12/20 03:56:51;;;;;;;;;;;;;;;;;;5036042;28;19916;-85
2021/12/20 03:59:16;;;;;;;;;;;;;;;;;;5036156;28;19928;-82
2021/12/20 04:01:41;;;;;;;;;;;;;;;;;;5036296;28;19966;-82
2021/12/20 04:04:09;;;;;;;;;;;;;;;;;;5036262;28;19921;-82
2021/12/20 04:06:35;;;;;;;;;;;;;;;;;;5036020;28;19916;-84
2021/12/20 04:09:00;;;;;;;;;;;;;;;;;;5034932;28;19921;-84
2021/12/20 04:11:28;;;;;;;;;;;;;;;;;;5035774;28;20020;-84
2021/12/20 04:13:53;;;;;;;;;;;;;;;;;;5034990;28;19953;-84
2021/12/20 04:16:18;;;;;;;;;;;;;;;;;;5035012;28;19975;-84
2021/12/20 04:18:43;;;;;;;;;;;;;;;;;;5035910;28;19917;-84
2021/12/20 04:21:13;;;;;;;;;;;;;;;;;;5036240;28;20376;-84
2021/12/20 04:23:38;;;;;;;;;;;;;;;;;;5035488;28;19947;-84
2021/12/20 04:26:03;;;;;;;;;;;;;;;;;;5035829;28;20258;-84
2021/12/20 04:28:31;;;;;;;;;;;;;;;;;;5034323;28;19970;-84
2021/12/20 04:30:56;;;;;;;;;;;;;;;;;;5018382;28;19971;-83
2021/12/20 04:33:24;;;;;;;;;;;;;;;;;;5034005;28;20346;-84
2021/12/20 04:35:49;;;;;;;;;;;;;;;;;;5035891;28;19917;-84
2021/12/20 04:38:18;;;;;;;;;;;;;;;;;;5035419;28;20000;-84
2021/12/20 04:40:46;;;;;;;;;;;;;;;;;;5034127;28;20012;-84
2021/12/20 04:43:13;;;;;;;;;;;;;;;;;;5034831;28;19924;-83
2021/12/20 04:45:38;;;;;;;;;;;;;;;;;;5035603;28;19913;-83
2021/12/20 04:48:04;;;;;;;;;;;;;;;;;;5035157;28;19917;-83
2021/12/20 04:50:29;;;;;;;;;;;;;;;;;;5036046;28;19952;-83
2021/12/20 04:52:55;;;;;;;;;;;;;;;;;;5034283;28;19917;-83
2021/12/20 04:55:21;;;;;;;;;;;;;;;;;;5035398;28;19925;-83
2021/12/20 04:57:47;;;;;;;;;;;;;;;;;;5035022;28;19945;-83
2021/12/20 05:00:13;;;;;;;;;;;;;;;;;;5034286;28;19928;-83
2021/12/20 05:02:41;;;;;;;;;;;;;;;;;;5035801;28;19924;-83
2021/12/20 05:05:06;;;;;;;;;;;;;;;;;;5034365;28;19917;-83
2021/12/20 05:07:32;;;;;;;;;;;;;;;;;;5033712;28;20368;-83
2021/12/20 05:10:02;;;;;;;;;;;;;;;;;;5033940;28;20249;-83
2021/12/20 05:12:27;;;;;;;;;;;;;;;;;;5033867;28;19928;-83
2021/12/20 05:14:52;;;;;;;;;;;;;;;;;;5034087;28;19917;-83
2021/12/20 05:17:17;;;;;;;;;;;;;;;;;;5034472;28;19917;-83
2021/12/20 05:19:43;;;;;;;;;;;;;;;;;;5034676;28;19940;-83
2021/12/20 05:22:08;;;;;;;;;;;;;;;;;;5033468;28;19925;-82
2021/12/20 05:24:34;;;;;;;;;;;;;;;;;;5033996;28;19919;-82
2021/12/20 05:27:01;;;;;;;;;;;;;;;;;;5033445;28;20251;-82
2021/12/20 05:29:27;;;;;;;;;;;;;;;;;;5034152;28;20358;-83
2021/12/20 05:31:52;;;;;;;;;;;;;;;;;;5034107;28;19928;-82
2021/12/20 05:34:20;;;;;;;;;;;;;;;;;;5034435;28;19921;-82
2021/12/20 05:36:45;;;;;;;;;;;;;;;;;;5034026;28;20073;-82
2021/12/20 05:39:13;;;;;;;;;;;;;;;;;;5033669;28;19975;-83
2021/12/20 05:41:40;;;;;;;;;;;;;;;;;;5033277;28;19920;-83
2021/12/20 05:44:06;;;;;;;;;;;;;;;;;;5034237;28;19984;-83
2021/12/20 05:46:31;;;;;;;;;;;;;;;;;;5033473;28;19960;-83
2021/12/20 05:48:57;;;;;;;;;;;;;;;;;;5034646;28;19975;-83
2021/12/20 05:51:22;;;;;;;;;;;;;;;;;;5032989;28;20007;-83
2021/12/20 05:53:47;;;;;;;;;;;;;;;;;;5034031;28;19925;-83
2021/12/20 05:56:12;;;;;;;;;;;;;;;;;;5033876;28;19924;-83
2021/12/20 05:58:37;;;;;;;;;;;;;;;;;;5034434;28;19920;-83
2021/12/20 06:01:03;;;;;;;;;;;;;;;;;;5032697;28;19930;-82
2021/12/20 06:03:28;;;;;;;;;;;;;;;;;;5034161;28;19979;-82
2021/12/20 06:05:53;;;;;;;;;;;;;;;;;;5034261;28;19917;-82
2021/12/20 06:08:18;;;;;;;;;;;;;;;;;;5034227;28;19957;-85
2021/12/20 06:10:44;;;;;;;;;;;;;;;;;;5033778;28;20477;-85
2021/12/20 06:13:11;;;;;;;;;;;;;;;;;;5034094;28;20372;-83
2021/12/20 06:15:36;;;;;;;;;;;;;;;;;;5033569;28;19936;-83
2021/12/20 06:18:01;;;;;;;;;;;;;;;;;;5033752;28;19914;-83
2021/12/20 06:20:27;;;;;;;;;;;;;;;;;;5033437;28;19982;-83
2021/12/20 06:22:52;;;;;;;;;;;;;;;;;;5033507;28;19959;-83
2021/12/20 06:25:18;;;;;;;;;;;;;;;;;;5032911;28;19964;-83
2021/12/20 06:27:43;;;;;;;;;;;;;;;;;;5032823;28;19920;-82
2021/12/20 06:30:09;;;;;;;;;;;;;;;;;;5033775;28;19928;-82
2021/12/20 06:32:35;;;;;;;;;;;;;;;;;;5036500;28;19913;-83
2021/12/20 06:35:00;;;;;;;;;;;;;;;;;;5032645;28;19925;-83
2021/12/20 06:37:26;;;;;;;;;;;;;;;;;;5033430;28;19944;-83
2021/12/20 06:39:56;;;;;;;;;;;;;;;;;;5033876;28;20007;-83
2021/12/20 06:42:23;;;;;;;;;;;;;;;;;;5033199;28;19920;-83
2021/12/20 06:44:51;;;;;;;;;;;;;;;;;;5033617;28;20015;-83
2021/12/20 06:47:16;;;;;;;;;;;;;;;;;;5036299;28;20356;-84
2021/12/20 06:49:42;;;;;;;;;;;;;;;;;;5032682;28;19913;-82
2021/12/20 06:52:07;;;;;;;;;;;;;;;;;;5033511;28;19917;-82
2021/12/20 06:54:32;;;;;;;;;;;;;;;;;;5033421;28;19944;-82
2021/12/20 06:56:57;;;;;;;;;;;;;;;;;;5033106;28;19917;-82
2021/12/20 06:59:22;;;;;;;;;;;;;;;;;;5033530;28;19976;-82
2021/12/20 07:01:48;;;;;;;;;;;;;;;;;;5031662;28;19917;-82
2021/12/20 07:04:14;;;;;;;;;;;;;;;;;;5032607;28;19917;-82
2021/12/20 07:06:39;;;;;;;;;;;;;;;;;;5029725;28;19928;-82
2021/12/20 07:09:39;;;;;;;;;;;;;;;;;;5032326;28;19917;-83
2021/12/20 07:12:04;;;;;;;;;;;;;;;;;;5034584;28;19924;-83
2021/12/20 07:14:34;;;;;;;;;;;;;;;;;;5032568;28;19921;-83
2021/12/20 07:17:00;;;;;;;;;;;;;;;;;;5032737;28;19917;-82
2021/12/20 07:19:25;;;;;;;;;;;;;;;;;;5036423;28;19927;-83
2021/12/20 07:21:50;;;;;;;;;;;;;;;;;;5037028;28;19917;-83
2021/12/20 07:24:18;;;;;;;;;;;;;;;;;;5041355;28;19986;-84
2021/12/20 07:26:46;;;;;;;;;;;;;;;;;;5035684;28;20373;-83
2021/12/20 07:29:13;;;;;;;;;;;;;;;;;;5036034;28;19974;-83
2021/12/20 07:31:41;;;;;;;;;;;;;;;;;;5035240;28;19917;-83
2021/12/20 07:34:10;;;;;;;;;;;;;;;;;;5035918;28;19921;-82
2021/12/20 07:36:35;;;;;;;;;;;;;;;;;;5036329;28;20258;-82
2021/12/20 07:39:00;;;;;;;;;;;;;;;;;;5036460;28;19917;-82
2021/12/20 07:41:25;;;;;;;;;;;;;;;;;;5034356;28;19943;-82
2021/12/20 07:43:51;;;;;;;;;;;;;;;;;;5036692;28;19967;-81
2021/12/20 07:46:17;;;;;;;;;;;;;;;;;;5034569;28;19924;-82
2021/12/20 07:48:42;;;;;;;;;;;;;;;;;;5034754;28;19925;-82
2021/12/20 07:51:07;;;;;;;;;;;;;;;;;;5035538;28;20293;-82
2021/12/20 07:53:32;;;;;;;;;;;;;;;;;;5035970;28;19943;-82
2021/12/20 07:55:58;;;;;;;;;;;;;;;;;;5035391;28;19924;-83
2021/12/20 07:58:23;;;;;;;;;;;;;;;;;;5036157;28;19963;-83
2021/12/20 08:00:48;;;;;;;;;;;;;;;;;;5037903;28;19952;-83
2021/12/20 08:03:13;;;;;;;;;;;;;;;;;;5034842;28;19917;-82
2021/12/20 08:05:41;;;;;;;;;;;;;;;;;;5035768;28;19924;-83
2021/12/20 08:08:06;;;;;;;;;;;;;;;;;;5030808;28;19928;-83
2021/12/20 08:10:34;;;;;;;;;;;;;;;;;;5034941;28;19968;-82
2021/12/20 08:13:02;;;;;;;;;;;;;;;;;;5035300;28;19920;-81
2021/12/20 08:15:29;;;;;;;;;;;;;;;;;;5035091;28;19931;-82
2021/12/20 08:17:55;;;;;;;;;;;;;;;;;;5034971;28;19917;-84
2021/12/20 08:20:20;;;;;;;;;;;;;;;;;;5018416;28;19917;-84
2021/12/20 08:22:46;;;;;;;;;;;;;;;;;;5035484;28;19960;-81
2021/12/20 08:25:12;;;;;;;;;;;;;;;;;;5018142;28;20413;-80
2021/12/20 08:27:38;;;;;;;;;;;;;;;;;;5032856;28;20003;-81
2021/12/20 08:30:04;;;;;;;;;;;;;;;;;;5035189;28;20334;-82
2021/12/20 08:32:29;;;;;;;;;;;;;;;;;;5034785;28;19927;-82
2021/12/20 08:34:54;;;;;;;;;;;;;;;;;;5034641;28;19921;-82
2021/12/20 08:37:22;;;;;;;;;;;;;;;;;;5035370;28;19933;-82
2021/12/20 08:39:47;;;;;;;;;;;;;;;;;;5035145;28;19928;-82
2021/12/20 08:42:12;;;;;;;;;;;;;;;;;;5036044;28;19917;-82
2021/12/20 08:44:38;;;;;;;;;;;;;;;;;;5035309;28;19928;-82
2021/12/20 08:47:06;;;;;;;;;;;;;;;;;;5032886;28;20012;-80
2021/12/20 08:49:31;;;;;;;;;;;;;;;;;;5034786;28;20405;-79
2021/12/20 08:51:57;;;;;;;;;;;;;;;;;;5034435;28;20005;-81
2021/12/20 08:54:24;;;;;;;;;;;;;;;;;;5034742;28;20023;-80
2021/12/20 08:56:50;;;;;;;;;;;;;;;;;;5037190;28;20342;-81
2021/12/20 08:59:15;;;;;;;;;;;;;;;;;;5035254;28;19971;-81
2021/12/20 09:01:43;;;;;;;;;;;;;;;;;;5034664;28;19932;-83
2021/12/20 09:04:23;;;;;;;;;;;;;;;;;;5034973;28;19969;-82
2021/12/20 09:07:11;;;;;;;;;;;;;;;;;;5031636;28;19917;-83
2021/12/20 09:09:39;;;;;;;;;;;;;;;;;;5028027;28;19921;-82
2021/12/20 09:15:06;;;;;;;;;;;;;;;;;;5023904;28;19932;-82
2021/12/20 09:17:31;;;;;;;;;;;;;;;;;;5035026;28;19917;-82
2021/12/20 09:19:56;;;;;;;;;;;;;;;;;;5014361;28;19917;-83
2021/12/20 09:22:27;;;;;;;;;;;;;;;;;;5033807;28;19966;-84
2021/12/20 09:24:58;;;;;;;;;;;;;;;;;;5032141;28;20016;-83
2021/12/20 09:27:54;;;;;;;;;;;;;;;;;;5034287;28;19921;-83
2021/12/20 09:30:20;;;;;;;;;;;;;;;;;;5034038;28;19928;-81
2021/12/20 09:32:45;;;;;;;;;;;;;;;;;;5034007;28;19916;-81
2021/12/20 09:35:16;;;;;;;;;;;;;;;;;;5033746;28;19921;-81
2021/12/20 09:37:59;;;;;;;;;;;;;;;;;;5001167;28;19972;-82
2021/12/20 09:41:01;;;;;;;;;;;;;;;;;;5045650;28;19916;-81
2021/12/20 09:43:26;;;;;;;;;;;;;;;;;;5029889;28;19917;-82
2021/12/20 09:45:55;;;;;;;;;;;;;;;;;;5033747;28;19925;-81
2021/12/20 09:48:20;;;;;;;;;;;;;;;;;;5033702;28;19924;-81
2021/12/20 09:50:47;;;;;;;;;;;;;;;;;;5035954;28;19917;-82
2021/12/20 09:53:14;;;;;;;;;;;;;;;;;;5035564;28;20377;-82
2021/12/20 09:55:39;;;;;;;;;;;;;;;;;;5034808;28;19921;-82
2021/12/20 09:58:04;;;;;;;;;;;;;;;;;;5032874;28;19974;-81
2021/12/20 10:00:30;;;;;;;;;;;;;;;;;;5035786;28;19921;-82
2021/12/20 10:02:55;;;;;;;;;;;;;;;;;;5033781;28;20334;-82
2021/12/20 10:05:20;;;;;;;;;;;;;;;;;;5033289;28;20495;-82
2021/12/20 10:07:50;;;;;;;;;;;;;;;;;;5027677;28;19975;-83
2021/12/20 10:10:36;;;;;;;;;;;;;;;;;;5028438;28;19984;-85
2021/12/20 10:13:01;;;;;;;;;;;;;;;;;;5029813;28;20227;-85
2021/12/20 10:15:40;;;;;;;;;;;;;;;;;;5014413;28;19924;-87
2021/12/20 10:18:20;;;;;;;;;;;;;;;;;;5029809;28;19917;-86
2021/12/20 10:20:52;;;;;;;;;;;;;;;;;;5016778;28;19917;-85
2021/12/20 10:23:19;;;;;;;;;;;;;;;;;;5025171;28;19917;-85
2021/12/20 10:25:47;;;;;;;;;;;;;;;;;;5024910;28;19917;-84
2021/12/20 10:28:14;;;;;;;;;;;;;;;;;;5025934;28;19917;-85
2021/12/20 10:30:43;;;;;;;;;;;;;;;;;;5022973;28;19917;-85
2021/12/20 10:33:29;;;;;;;;;;;;;;;;;;5024029;28;20266;-85
2021/12/20 10:35:55;;;;;;;;;;;;;;;;;;5026044;28;19921;-83
2021/12/20 10:38:38;;;;;;;;;;;;;;;;;;5031908;28;19921;-84
2021/12/20 10:41:06;;;;;;;;;;;;;;;;;;5032221;28;19971;-84
2021/12/20 10:43:34;;;;;;;;;;;;;;;;;;5033207;28;19978;-83
2021/12/20 10:46:06;;;;;;;;;;;;;;;;;;5034750;28;19917;-83
2021/12/20 10:48:34;;;;;;;;;;;;;;;;;;5031505;28;19914;-83
2021/12/20 10:51:14;;;;;;;;;;;;;;;;;;5035992;28;19917;-83
2021/12/20 10:53:40;;;;;;;;;;;;;;;;;;5036863;28;20012;-85
2021/12/20 10:56:06;;;;;;;;;;;;;;;;;;5036348;28;20087;-86
2021/12/20 10:58:38;;;;;;;;;;;;;;;;;;5037307;28;19913;-86
2021/12/20 11:03:55;;;;;;;;;;;;;;;;;;5033816;28;19925;-84
2021/12/20 11:09:08;;;;;;;;;;;;;;;;;;5031976;28;19922;-85
2021/12/20 11:11:37;;;;;;;;;;;;;;;;;;5019805;28;19991;-84
2021/12/20 11:14:05;;;;;;;;;;;;;;;;;;5030356;28;20022;-84
2021/12/20 11:16:33;;;;;;;;;;;;;;;;;;5032914;28;19917;-83
2021/12/20 11:19:17;;;;;;;;;;;;;;;;;;5046049;28;19920;-84
2021/12/20 11:21:51;;;;;;;;;;;;;;;;;;5050250;28;19929;-85
2021/12/20 11:24:18;;;;;;;;;;;;;;;;;;5029370;28;19921;-84
2021/12/20 11:26:46;;;;;;;;;;;;;;;;;;5027007;28;19917;-84
2021/12/20 11:29:14;;;;;;;;;;;;;;;;;;5025365;28;19917;-84
2021/12/20 11:34:53;;;;;;;;;;;;;;;;;;5023996;28;20468;-86
2021/12/20 11:37:20;;;;;;;;;;;;;;;;;;5032207;28;19921;-84
2021/12/20 11:39:46;;;;;;;;;;;;;;;;;;5026084;28;19917;-84
2021/12/20 11:42:14;;;;;;;;;;;;;;;;;;5028670;28;19939;-86
2021/12/20 11:44:39;;;;;;;;;;;;;;;;;;5030543;28;20437;-86
2021/12/20 11:47:08;;;;;;;;;;;;;;;;;;5028518;28;20007;-83
2021/12/20 11:49:34;;;;;;;;;;;;;;;;;;5030062;28;19925;-83
2021/12/20 11:52:00;;;;;;;;;;;;;;;;;;5039141;28;20393;-84
2021/12/20 11:54:45;;;;;;;;;;;;;;;;;;5034785;28;20261;-85
2021/12/20 11:57:29;;;;;;;;;;;;;;;;;;5027666;28;20166;-85
2021/12/20 11:59:56;;;;;;;;;;;;;;;;;;5032716;28;19925;-83
2021/12/20 12:02:31;;;;;;;;;;;;;;;;;;5029245;28;19924;-83
2021/12/20 12:05:23;;;;;;;;;;;;;;;;;;5034443;28;19968;-85
2021/12/20 12:08:09;;;;;;;;;;;;;;;;;;5012100;28;20420;-83
2021/12/20 12:10:34;;;;;;;;;;;;;;;;;;5050957;28;19916;-84
2021/12/20 12:13:00;;;;;;;;;;;;;;;;;;5054910;28;19995;-84
2021/12/20 12:15:39;;;;;;;;;;;;;;;;;;5028694;28;19921;-84
2021/12/20 12:18:05;;;;;;;;;;;;;;;;;;5033956;28;19914;-85
2021/12/20 12:20:39;;;;;;;;;;;;;;;;;;5034585;28;19979;-85
2021/12/20 12:23:12;;;;;;;;;;;;;;;;;;5041541;28;19933;-84
2021/12/20 12:25:40;;;;;;;;;;;;;;;;;;5041900;28;20000;-84
2021/12/20 12:28:08;;;;;;;;;;;;;;;;;;5029777;28;19980;-84
2021/12/20 12:30:34;;;;;;;;;;;;;;;;;;5040641;28;19971;-84
2021/12/20 12:33:02;;;;;;;;;;;;;;;;;;5023758;28;19959;-84
2021/12/20 12:35:51;;;;;;;;;;;;;;;;;;5039933;28;19921;-85
2021/12/20 12:38:49;;;;;;;;;;;;;;;;;;5036972;28;20530;-80
2021/12/20 12:41:17;;;;;;;;;;;;;;;;;;5021996;28;19952;-80
2021/12/20 12:43:46;;;;;;;;;;;;;;;;;;5035003;28;19913;-79
2021/12/20 12:46:11;;;;;;;;;;;;;;;;;;5029760;28;19913;-77
2021/12/20 12:51:39;;;;;;;;;;;;;;;;;;5030659;28;20286;-84
2021/12/20 12:54:05;;;;;;;;;;;;;;;;;;5037496;28;19964;-80
2021/12/20 12:56:30;;;;;;;;;;;;;;;;;;5028800;28;20002;-81
2021/12/20 12:59:11;;;;;;;;;;;;;;;;;;5048184;28;19936;-81
2021/12/20 13:01:41;;;;;;;;;;;;;;;;;;5048274;28;19928;-80
2021/12/20 13:04:06;;;;;;;;;;;;;;;;;;5017235;28;19924;-80
2021/12/20 13:06:31;;;;;;;;;;;;;;;;;;5033813;28;19917;-80
2021/12/20 13:08:59;;;;;;;;;;;;;;;;;;5034265;28;19913;-81
2021/12/20 13:11:25;;;;;;;;;;;;;;;;;;5034782;28;19917;-79
2021/12/20 13:14:06;;;;;;;;;;;;;;;;;;5034223;28;19917;-81
2021/12/20 13:16:31;;;;;;;;;;;;;;;;;;5034183;28;19975;-80
2021/12/20 13:19:02;;;;;;;;;;;;;;;;;;5033954;28;19924;-80
2021/12/20 13:21:36;;;;;;;;;;;;;;;;;;5034752;28;20411;-80
2021/12/20 13:24:01;;;;;;;;;;;;;;;;;;5035570;28;20262;-78
2021/12/20 13:26:28;;;;;;;;;;;;;;;;;;5034052;28;19943;-80
2021/12/20 13:28:58;;;;;;;;;;;;;;;;;;5017579;28;19920;-79
2021/12/20 13:31:24;;;;;;;;;;;;;;;;;;5034524;28;20000;-79
2021/12/20 13:33:52;;;;;;;;;;;;;;;;;;5034085;28;19967;-79
2021/12/20 13:36:18;;;;;;;;;;;;;;;;;;5033521;28;20018;-79
2021/12/20 13:38:44;;;;;;;;;;;;;;;;;;5017212;28;19968;-79
2021/12/20 13:41:11;;;;;;;;;;;;;;;;;;5035013;28;19920;-79
2021/12/20 13:43:59;;;;;;;;;;;;;;;;;;5033031;28;20358;-79
2021/12/20 13:46:30;;;;;;;;;;;;;;;;;;5025792;28;20353;-79
2021/12/20 13:48:59;;;;;;;;;;;;;;;;;;5033319;28;19925;-78
2021/12/20 13:51:30;;;;;;;;;;;;;;;;;;5034456;28;19928;-79
2021/12/20 13:54:17;;;;;;;;;;;;;;;;;;5033572;28;19928;-79
2021/12/20 13:56:54;;;;;;;;;;;;;;;;;;5034223;28;20262;-80
2021/12/20 13:59:23;;;;;;;;;;;;;;;;;;5032640;28;19913;-79
2021/12/20 14:01:49;;;;;;;;;;;;;;;;;;5016432;28;19991;-78
2021/12/20 14:04:29;;;;;;;;;;;;;;;;;;5032548;28;19917;-78
2021/12/20 14:06:54;;;;;;;;;;;;;;;;;;5033235;28;19968;-78
2021/12/20 14:09:36;;;;;;;;;;;;;;;;;;5033988;28;20455;-78
2021/12/20 14:12:08;;;;;;;;;;;;;;;;;;5032944;28;19950;-78
2021/12/20 14:14:34;;;;;;;;;;;;;;;;;;5032807;28;20270;-78
2021/12/20 14:17:00;;;;;;;;;;;;;;;;;;5033740;28;19917;-78
2021/12/20 14:19:44;;;;;;;;;;;;;;;;;;5033064;28;19924;-78
2021/12/20 14:22:11;;;;;;;;;;;;;;;;;;5033904;28;19924;-79
2021/12/20 14:24:37;;;;;;;;;;;;;;;;;;5032721;28;20004;-78
2021/12/20 14:27:03;;;;;;;;;;;;;;;;;;5033925;28;20338;-78
2021/12/20 14:29:31;;;;;;;;;;;;;;;;;;5033663;28;20011;-78
2021/12/20 14:32:00;;;;;;;;;;;;;;;;;;5032044;28;19924;-78
2021/12/20 14:34:32;;;;;;;;;;;;;;;;;;5033442;28;20023;-78
2021/12/20 14:37:05;;;;;;;;;;;;;;;;;;5032381;28;19991;-78
2021/12/20 14:39:38;;;;;;;;;;;;;;;;;;5033498;28;20228;-78
2021/12/20 14:42:04;;;;;;;;;;;;;;;;;;5033789;28;20017;-78
2021/12/20 14:44:38;;;;;;;;;;;;;;;;;;5031911;28;19976;-78
2021/12/20 14:47:20;;;;;;;;;;;;;;;;;;5029168;28;19927;-78
2021/12/20 14:49:55;;;;;;;;;;;;;;;;;;5032290;28;19917;-85
2021/12/20 14:52:24;;;;;;;;;;;;;;;;;;5027879;28;20040;-80
2021/12/20 14:54:57;;;;;;;;;;;;;;;;;;5032297;28;19921;-79
2021/12/20 14:57:28;;;;;;;;;;;;;;;;;;5011970;28;20050;-81
2021/12/20 15:00:04;;;;;;;;;;;;;;;;;;5027433;28;20024;-84
2021/12/20 15:02:34;;;;;;;;;;;;;;;;;;5021879;28;20274;-83
2021/12/20 15:05:01;;;;;;;;;;;;;;;;;;5029792;28;19924;-84
2021/12/20 15:07:29;;;;;;;;;;;;;;;;;;5021433;28;19917;-82
2021/12/20 15:09:55;;;;;;;;;;;;;;;;;;5021763;28;20020;-82
2021/12/20 15:12:20;;;;;;;;;;;;;;;;;;5027358;28;20457;-81
2021/12/20 15:14:46;;;;;;;;;;;;;;;;;;5024076;28;20035;-80
2021/12/20 15:17:11;;;;;;;;;;;;;;;;;;5027247;28;19947;-80
2021/12/20 15:19:36;;;;;;;;;;;;;;;;;;5029064;28;19922;-81
2021/12/20 15:22:02;;;;;;;;;;;;;;;;;;5020163;28;19927;-81
2021/12/20 15:24:27;;;;;;;;;;;;;;;;;;5024648;28;19925;-81
2021/12/20 15:26:52;;;;;;;;;;;;;;;;;;5029380;28;19917;-81
2021/12/20 15:29:30;;;;;;;;;;;;;;;;;;5023605;28;20020;-82
2021/12/20 15:31:56;;;;;;;;;;;;;;;;;;5023286;28;20377;-83
2021/12/20 15:34:21;;;;;;;;;;;;;;;;;;5038874;28;20375;-86
2021/12/20 15:36:46;;;;;;;;;;;;;;;;;;5027474;28;19942;-86
2021/12/20 15:39:11;;;;;;;;;;;;;;;;;;5030120;28;19943;-85
2021/12/20 15:41:37;;;;;;;;;;;;;;;;;;5036127;28;19936;-85
2021/12/20 15:44:02;;;;;;;;;;;;;;;;;;5034912;28;19991;-85
2021/12/20 15:46:28;;;;;;;;;;;;;;;;;;5034367;28;19921;-85
2021/12/20 15:48:53;;;;;;;;;;;;;;;;;;5034790;28;19928;-85
2021/12/20 15:51:23;;;;;;;;;;;;;;;;;;5032967;28;19944;-85
2021/12/20 15:53:49;;;;;;;;;;;;;;;;;;5035474;28;19913;-86
2021/12/20 15:56:15;;;;;;;;;;;;;;;;;;5030382;28;19936;-85
2021/12/20 15:58:40;;;;;;;;;;;;;;;;;;5016511;28;19933;-85
2021/12/20 16:01:05;;;;;;;;;;;;;;;;;;5019091;28;19913;-86
2021/12/20 16:03:30;;;;;;;;;;;;;;;;;;5036061;28;20075;-85
2021/12/20 16:05:56;;;;;;;;;;;;;;;;;;5014262;28;19905;-86
2021/12/20 16:08:21;;;;;;;;;;;;;;;;;;5034445;28;20330;-86
2021/12/20 16:10:47;;;;;;;;;;;;;;;;;;5031405;28;19953;-85
2021/12/20 16:13:16;;;;;;;;;;;;;;;;;;5029687;28;19937;-86
2021/12/20 16:15:47;;;;;;;;;;;;;;;;;;5032146;28;19936;-85
2021/12/20 16:18:12;;;;;;;;;;;;;;;;;;5034409;28;20231;-86
2021/12/20 16:20:37;;;;;;;;;;;;;;;;;;5029759;28;19983;-86
2021/12/20 16:23:05;;;;;;;;;;;;;;;;;;5034712;28;19917;-85
2021/12/20 16:25:30;;;;;;;;;;;;;;;;;;5019430;28;19995;-85
2021/12/20 16:27:55;;;;;;;;;;;;;;;;;;5028459;28;20346;-86
2021/12/20 16:30:23;;;;;;;;;;;;;;;;;;5017490;28;19922;-86
2021/12/20 16:32:51;;;;;;;;;;;;;;;;;;5034581;28;20347;-86
2021/12/20 16:35:17;;;;;;;;;;;;;;;;;;5028122;28;19951;-87
2021/12/20 16:37:48;;;;;;;;;;;;;;;;;;5031406;28;20251;-86
2021/12/20 16:40:14;;;;;;;;;;;;;;;;;;5026646;28;19917;-86
2021/12/20 16:42:40;;;;;;;;;;;;;;;;;;5014130;28;19928;-87
2021/12/20 16:45:07;;;;;;;;;;;;;;;;;;5034354;28;20661;-87
2021/12/20 16:47:39;;;;;;;;;;;;;;;;;;5016674;28;20477;-86
2021/12/20 16:50:08;;;;;;;;;;;;;;;;;;5026407;28;20048;-87
2021/12/20 16:52:36;;;;;;;;;;;;;;;;;;5029800;28;19917;-86
2021/12/20 16:55:02;;;;;;;;;;;;;;;;;;5032176;28;19932;-87
2021/12/20 16:57:30;;;;;;;;;;;;;;;;;;5014683;28;19918;-86
2021/12/20 16:59:56;;;;;;;;;;;;;;;;;;5032638;28;19929;-85
2021/12/20 17:02:26;;;;;;;;;;;;;;;;;;5035020;28;19932;-86
2021/12/20 17:04:53;;;;;;;;;;;;;;;;;;5017002;28;19932;-86
2021/12/20 17:07:21;;;;;;;;;;;;;;;;;;5033206;28;19913;-86
2021/12/20 17:09:46;;;;;;;;;;;;;;;;;;5025688;28;20408;-86
2021/12/20 17:12:14;;;;;;;;;;;;;;;;;;5018312;28;19921;-88
2021/12/20 17:14:40;;;;;;;;;;;;;;;;;;5035894;28;19957;-86
2021/12/20 17:17:13;;;;;;;;;;;;;;;;;;5029853;28;19949;-86